createdAt,value
2019-04-14T00:02:07.876Z,20.20
2019-04-14T00:04:42.456Z,18.53
2019-04-14T00:07:12.713Z,18.53
2019-04-14T00:09:43.198Z,18.20
2019-04-14T00:12:14.355Z,18.33
2019-04-14T00:14:44.771Z,18.20
2019-04-14T00:17:15.181Z,18.27
2019-04-14T00:19:45.689Z,19.50
2019-04-14T00:22:16.786Z,18.70
2019-04-14T00:24:46.982Z,19.33
2019-04-14T00:27:17.739Z,18.43
2019-04-14T00:29:48.045Z,17.97
2019-04-14T00:32:18.375Z,18.40
2019-04-14T00:35:08.250Z,19.50
2019-04-14T00:38:02.378Z,22.37
2019-04-14T00:40:39.005Z,17.07
2019-04-14T00:43:30.964Z,18.77
2019-04-14T00:46:05.976Z,19.60
2019-04-14T00:48:36.631Z,18.10
2019-04-14T00:51:07.437Z,19.10
2019-04-14T00:53:38.174Z,21.00
2019-04-14T00:56:08.601Z,20.20
2019-04-14T00:58:39.009Z,18.30
2019-04-14T01:01:09.702Z,23.27
2019-04-14T01:03:39.924Z,19.90
2019-04-14T01:06:10.225Z,18.50
2019-04-14T01:08:40.759Z,19.50
2019-04-14T01:11:11.718Z,20.07
2019-04-14T01:13:42.084Z,22.30
2019-04-14T01:16:18.394Z,20.90
2019-04-14T01:18:45.120Z,18.83
2019-04-14T01:21:15.908Z,23.17
2019-04-14T01:23:46.097Z,22.93
2019-04-14T01:26:16.333Z,21.33
2019-04-14T01:28:46.530Z,22.77
2019-04-14T01:31:16.825Z,23.63
2019-04-14T01:33:47.060Z,21.57
2019-04-14T01:36:17.426Z,24.03
2019-04-14T01:38:49.283Z,26.50
2019-04-14T01:41:19.619Z,23.50
2019-04-14T01:43:49.956Z,23.30
2019-04-14T01:46:24.718Z,24.57
2019-04-14T01:48:52.356Z,23.80
2019-04-14T01:51:40.138Z,23.27
2019-04-14T01:54:27.769Z,23.73
2019-04-14T01:57:15.644Z,25.63
2019-04-14T01:59:46.140Z,25.90
2019-04-14T02:02:20.668Z,25.63
2019-04-14T02:04:51.013Z,24.37
2019-04-14T02:07:21.254Z,27.07
2019-04-14T02:09:51.507Z,26.87
2019-04-14T02:12:21.761Z,26.90
2019-04-14T02:14:52.394Z,25.93
2019-04-14T02:17:22.596Z,27.63
2019-04-14T02:19:54.521Z,25.10
2019-04-14T02:22:24.972Z,30.30
2019-04-14T02:24:56.988Z,28.67
2019-04-14T02:27:27.738Z,30.67
2019-04-14T02:29:58.368Z,28.60
2019-04-14T02:33:00.925Z,29.30
2019-04-14T02:35:31.829Z,27.67
2019-04-14T02:38:01.999Z,27.77
2019-04-14T02:40:39.147Z,23.00
2019-04-14T02:43:04.337Z,27.83
2019-04-14T02:45:50.481Z,30.37
2019-04-14T02:48:20.263Z,26.77
2019-04-14T02:50:38.602Z,26.57
2019-04-14T02:53:15.884Z,24.07
2019-04-14T02:55:49.215Z,25.70
2019-04-14T02:58:18.260Z,26.77
2019-04-14T03:00:48.080Z,30.87
2019-04-14T03:03:21.545Z,27.67
2019-04-14T03:05:57.984Z,26.67
2019-04-14T03:08:25.556Z,31.13
2019-04-14T03:10:54.024Z,29.27
2019-04-14T03:13:28.717Z,27.67
2019-04-14T03:15:56.809Z,31.53
2019-04-14T03:18:57.755Z,31.87
2019-04-14T03:21:48.828Z,31.03
2019-04-14T03:24:33.976Z,30.40
2019-04-14T03:27:40.361Z,29.77
2019-04-14T03:38:13.298Z,30.63
2019-04-14T03:40:41.246Z,34.10
2019-04-14T03:43:24.457Z,28.93
2019-04-14T03:50:44.320Z,35.20
2019-04-14T03:53:21.425Z,34.60
2019-04-14T03:56:06.709Z,31.23
2019-04-14T03:58:35.728Z,29.73
2019-04-14T04:01:06.212Z,31.53
2019-04-14T04:03:36.874Z,36.50
2019-04-14T04:06:07.608Z,34.07
2019-04-14T04:08:37.916Z,34.63
2019-04-14T04:11:08.426Z,34.10
2019-04-14T04:13:39.135Z,33.53
2019-04-14T04:16:23.039Z,32.60
2019-04-14T04:19:01.901Z,32.07
2019-04-14T04:21:44.477Z,35.30
2019-04-14T04:24:35.021Z,36.03
2019-04-14T04:27:39.771Z,32.10
2019-04-14T04:30:18.692Z,37.20
2019-04-14T04:33:06.985Z,33.37
2019-04-14T04:35:41.503Z,34.97
2019-04-14T04:38:16.101Z,39.03
2019-04-14T04:40:46.760Z,41.97
2019-04-14T04:43:17.346Z,39.33
2019-04-14T04:45:47.548Z,38.03
2019-04-14T04:48:17.760Z,36.00
2019-04-14T04:50:48.346Z,43.27
2019-04-14T04:53:20.080Z,41.47
2019-04-14T04:55:50.498Z,39.60
2019-04-14T04:58:21.606Z,39.33
2019-04-14T05:00:54.183Z,40.40
2019-04-14T05:03:25.470Z,39.83
2019-04-14T05:06:39.389Z,41.27
2019-04-14T05:09:17.336Z,40.60
2019-04-14T05:12:06.702Z,44.47
2019-04-14T05:14:45.587Z,44.93
2019-04-14T05:17:17.253Z,42.47
2019-04-14T05:19:47.622Z,41.73
2019-04-14T05:22:19.349Z,46.67
2019-04-14T05:24:50.755Z,49.93
2019-04-14T05:27:21.157Z,46.60
2019-04-14T05:29:51.564Z,47.90
2019-04-14T05:32:21.871Z,45.60
2019-04-14T05:34:52.213Z,48.53
2019-04-14T05:37:22.573Z,45.70
2019-04-14T05:39:52.816Z,45.13
2019-04-14T05:42:25.934Z,45.13
2019-04-14T05:44:57.833Z,45.43
2019-04-14T05:47:28.400Z,47.73
2019-04-14T05:49:59.329Z,50.57
2019-04-14T05:52:30.024Z,44.57
2019-04-14T05:55:00.248Z,51.90
2019-04-14T05:57:30.635Z,49.33
2019-04-14T06:00:01.816Z,54.77
2019-04-14T06:02:33.898Z,49.93
2019-04-14T06:05:06.459Z,50.50
2019-04-14T06:07:36.930Z,47.33
2019-04-14T06:10:07.620Z,46.60
2019-04-14T06:12:37.839Z,52.97
2019-04-14T06:15:08.334Z,52.97
2019-04-14T06:17:38.622Z,57.30
2019-04-14T06:20:09.609Z,49.73
2019-04-14T06:22:39.882Z,52.43
2019-04-14T06:25:10.271Z,50.50
2019-04-14T06:27:40.511Z,52.03
2019-04-14T06:30:32.928Z,53.43
2019-04-14T06:33:09.805Z,51.23
2019-04-14T06:36:05.091Z,47.57
2019-04-14T06:38:37.702Z,52.33
2019-04-14T06:41:10.072Z,49.37
2019-04-14T06:43:48.649Z,50.90
2019-04-14T06:46:12.876Z,51.47
2019-04-14T06:48:43.178Z,50.73
2019-04-14T06:51:13.326Z,52.23
2019-04-14T06:53:43.527Z,54.07
2019-04-14T06:56:13.756Z,53.67
2019-04-14T06:58:43.976Z,48.17
2019-04-14T07:01:14.106Z,47.10
2019-04-14T07:03:44.394Z,51.23
2019-04-14T07:06:14.705Z,50.33
2019-04-14T07:08:45.002Z,45.77
2019-04-14T07:11:15.276Z,43.37
2019-04-14T07:13:47.899Z,46.97
2019-04-14T07:16:17.726Z,47.43
2019-04-14T07:18:48.253Z,42.93
2019-04-14T07:21:18.758Z,40.80
2019-04-14T07:23:48.984Z,45.13
2019-04-14T07:26:19.190Z,42.97
2019-04-14T07:28:56.532Z,38.67
2019-04-14T07:31:40.840Z,41.47
2019-04-14T07:34:30.002Z,40.27
2019-04-14T07:37:20.914Z,43.67
2019-04-14T07:40:09.100Z,43.87
2019-04-14T07:42:50.253Z,50.83
2019-04-14T07:45:38.590Z,52.73
2019-04-14T07:48:13.051Z,42.80
2019-04-14T07:51:20.405Z,47.43
2019-04-14T07:53:57.578Z,48.63
2019-04-14T07:56:45.312Z,47.03
2019-04-14T07:59:40.295Z,43.47
2019-04-14T08:02:26.049Z,45.03
2019-04-14T08:05:01.024Z,46.10
2019-04-14T08:07:31.571Z,47.13
2019-04-14T08:10:01.825Z,46.23
2019-04-14T08:12:35.048Z,42.93
2019-04-14T08:15:04.641Z,44.20
2019-04-14T08:17:35.170Z,41.73
2019-04-14T08:20:06.234Z,48.67
2019-04-14T08:22:36.880Z,59.43
2019-04-14T08:25:07.465Z,58.13
2019-04-14T08:27:37.760Z,49.20
2019-04-14T08:30:10.166Z,54.53
2019-04-14T08:32:40.426Z,47.70
2019-04-14T08:35:11.066Z,53.33
2019-04-14T08:37:41.460Z,54.83
2019-04-14T08:40:12.436Z,50.73
2019-04-14T08:42:58.569Z,53.10
2019-04-14T08:45:59.907Z,58.97
2019-04-14T08:48:48.044Z,66.87
2019-04-14T08:51:25.370Z,60.17
2019-04-14T08:54:09.099Z,52.90
2019-04-14T08:56:58.258Z,53.37
2019-04-14T08:59:56.809Z,57.07
2019-04-14T09:02:45.999Z,62.83
2019-04-14T09:05:35.189Z,62.40
2019-04-14T09:08:10.745Z,65.90
2019-04-14T09:10:44.077Z,58.00
2019-04-14T09:13:14.637Z,60.93
2019-04-14T09:15:45.152Z,58.47
2019-04-14T09:18:15.367Z,65.47
2019-04-14T09:20:52.279Z,62.37
2019-04-14T09:23:17.504Z,63.60
2019-04-14T09:25:48.159Z,62.60
2019-04-14T09:28:18.377Z,63.63
2019-04-14T09:30:48.975Z,62.33
2019-04-14T09:33:19.605Z,62.20
2019-04-14T09:35:49.949Z,66.00
2019-04-14T09:38:20.161Z,62.90
2019-04-14T09:40:50.409Z,63.30
2019-04-14T09:43:21.408Z,58.70
2019-04-14T09:45:52.019Z,56.60
2019-04-14T09:48:22.309Z,54.23
2019-04-14T09:51:04.205Z,50.50
2019-04-14T09:53:24.771Z,46.97
2019-04-14T09:55:55.028Z,48.03
2019-04-14T09:58:27.641Z,53.37
2019-04-14T10:00:57.914Z,55.23
2019-04-14T10:03:28.440Z,60.93
2019-04-14T10:05:58.835Z,49.67
2019-04-14T10:08:29.113Z,53.83
2019-04-14T10:10:59.418Z,55.90
2019-04-14T10:13:29.673Z,51.57
2019-04-14T10:15:59.890Z,52.77
2019-04-14T10:18:30.843Z,49.80
2019-04-14T10:21:01.752Z,51.80
2019-04-14T10:23:32.044Z,53.70
2019-04-14T10:26:02.274Z,56.43
2019-04-14T10:28:32.520Z,57.67
2019-04-14T10:31:03.059Z,54.67
2019-04-14T10:33:33.269Z,57.10
2019-04-14T10:36:03.534Z,56.20
2019-04-14T10:38:33.718Z,56.33
2019-04-14T10:41:03.908Z,54.57
2019-04-14T10:43:34.214Z,54.43
2019-04-14T10:46:04.950Z,50.63
2019-04-14T10:48:35.505Z,53.00
2019-04-14T10:51:06.814Z,51.60
2019-04-14T10:53:37.008Z,49.00
2019-04-14T10:56:07.341Z,49.23
2019-04-14T10:58:37.614Z,54.97
2019-04-14T11:01:08.188Z,54.30
2019-04-14T11:03:38.482Z,59.50
2019-04-14T11:06:14.719Z,58.60
2019-04-14T11:08:45.271Z,56.10
2019-04-14T11:11:15.532Z,54.67
2019-04-14T11:13:45.796Z,47.40
2019-04-14T11:16:16.109Z,47.10
2019-04-14T11:18:46.266Z,48.73
2019-04-14T11:21:16.543Z,42.67
2019-04-14T11:23:47.120Z,44.93
2019-04-14T11:26:17.778Z,41.30
2019-04-14T11:28:48.009Z,43.73
2019-04-14T11:31:35.436Z,40.53
2019-04-14T11:34:05.815Z,41.73
2019-04-14T11:36:47.072Z,38.93
2019-04-14T11:39:18.475Z,35.83
2019-04-14T11:41:48.722Z,38.03
2019-04-14T11:44:18.944Z,30.47
2019-04-14T11:46:49.289Z,33.27
2019-04-14T11:49:19.925Z,33.90
2019-04-14T11:51:55.605Z,37.17
2019-04-14T11:54:22.185Z,32.07
2019-04-14T11:56:52.700Z,33.67
2019-04-14T11:59:33.006Z,30.03
2019-04-14T12:02:15.450Z,32.80
2019-04-14T12:05:07.405Z,32.17
2019-04-14T12:07:45.788Z,33.90
2019-04-14T12:10:18.392Z,30.63
2019-04-14T12:12:49.003Z,33.10
2019-04-14T12:15:19.240Z,33.17
2019-04-14T12:17:49.767Z,34.90
2019-04-14T12:20:19.971Z,36.07
2019-04-14T12:22:50.289Z,35.60
2019-04-14T12:25:20.493Z,34.53
2019-04-14T12:27:51.278Z,32.90
2019-04-14T12:30:22.387Z,34.40
2019-04-14T12:32:52.733Z,31.70
2019-04-14T12:35:23.064Z,31.87
2019-04-14T12:37:53.491Z,34.73
2019-04-14T12:40:23.894Z,30.37
2019-04-14T12:43:07.314Z,32.20
2019-04-14T12:45:49.038Z,34.03
2019-04-14T12:48:36.777Z,32.60
2019-04-14T12:51:26.057Z,29.33
2019-04-14T12:53:56.354Z,31.23
2019-04-14T12:56:27.845Z,30.07
2019-04-14T12:59:16.979Z,29.47
2019-04-14T13:01:57.059Z,32.17
2019-04-14T13:04:27.374Z,30.10
2019-04-14T13:06:58.504Z,32.43
2019-04-14T13:09:28.760Z,29.37
2019-04-14T13:11:58.965Z,30.27
2019-04-14T13:14:29.243Z,27.73
2019-04-14T13:16:59.574Z,31.60
2019-04-14T13:19:29.918Z,31.27
2019-04-14T13:22:00.197Z,32.00
2019-04-14T13:24:30.504Z,31.23
2019-04-14T13:27:00.819Z,30.97
2019-04-14T13:29:31.112Z,32.53
2019-04-14T13:32:01.437Z,30.40
2019-04-14T13:34:32.333Z,31.63
2019-04-14T13:37:02.543Z,31.47
2019-04-14T13:39:33.165Z,28.43
2019-04-14T13:42:06.057Z,29.40
2019-04-14T13:44:36.395Z,29.77
2019-04-14T13:47:06.674Z,27.57
2019-04-14T13:49:36.954Z,31.43
2019-04-14T13:52:07.206Z,29.60
2019-04-14T13:54:38.858Z,27.30
2019-04-14T13:57:09.058Z,28.90
2019-04-14T13:59:39.277Z,27.73
2019-04-14T14:02:10.619Z,27.40
2019-04-14T14:04:40.900Z,28.03
2019-04-14T14:07:11.136Z,26.00
2019-04-14T14:09:41.450Z,26.87
2019-04-14T14:12:36.894Z,29.03
2019-04-14T14:15:25.406Z,28.00
2019-04-14T14:18:13.217Z,27.77
2019-04-14T14:21:08.242Z,31.90
2019-04-14T14:23:57.368Z,30.17
2019-04-14T14:26:28.616Z,29.57
2019-04-14T14:28:58.878Z,27.07
2019-04-14T14:31:29.134Z,26.67
2019-04-14T14:33:59.396Z,29.27
2019-04-14T14:36:29.636Z,27.07
2019-04-14T14:38:59.883Z,27.90
2019-04-14T14:41:30.082Z,30.40
2019-04-14T14:44:00.742Z,28.20
2019-04-14T14:46:48.503Z,27.03
2019-04-14T14:49:30.708Z,28.10
2019-04-14T14:52:05.322Z,25.13
2019-04-14T14:54:35.974Z,27.30
2019-04-14T14:57:06.527Z,29.53
2019-04-14T14:59:36.760Z,28.13
2019-04-14T15:02:07.170Z,26.97
2019-04-14T15:04:37.460Z,28.00
2019-04-14T15:07:08.030Z,27.73
2019-04-14T15:09:38.193Z,24.90
2019-04-14T15:12:08.669Z,24.57
2019-04-14T15:14:38.939Z,25.43
2019-04-14T15:17:09.246Z,30.30
2019-04-14T15:19:39.502Z,23.63
2019-04-14T15:22:09.756Z,27.50
2019-04-14T15:24:40.078Z,27.53
2019-04-14T15:27:10.630Z,27.03
2019-04-14T15:29:41.012Z,26.30
2019-04-14T15:32:11.600Z,24.83
2019-04-14T15:34:41.931Z,23.87
2019-04-14T15:37:12.151Z,25.40
2019-04-14T15:39:42.358Z,23.17
2019-04-14T15:42:12.609Z,24.47
2019-04-14T15:44:43.262Z,22.90
2019-04-14T15:47:14.030Z,25.50
2019-04-14T15:49:44.238Z,23.07
2019-04-14T15:52:14.637Z,23.53
2019-04-14T15:54:45.000Z,23.10
2019-04-14T15:57:29.640Z,22.83
2019-04-14T16:00:20.440Z,24.87
2019-04-14T16:02:58.748Z,22.10
2019-04-14T16:05:43.748Z,25.33
2019-04-14T16:08:28.726Z,21.37
2019-04-14T16:11:15.407Z,22.83
2019-04-14T16:14:01.211Z,22.10
2019-04-14T16:16:56.772Z,21.33
2019-04-14T16:19:43.126Z,23.80
2019-04-14T16:22:13.470Z,21.17
2019-04-14T16:24:44.021Z,20.60
2019-04-14T16:27:33.676Z,23.87
2019-04-14T16:30:28.716Z,22.10
2019-04-14T16:33:18.164Z,19.80
2019-04-14T16:35:48.709Z,22.40
2019-04-14T16:38:19.486Z,19.07
2019-04-14T16:43:15.727Z,18.70
2019-04-14T16:45:48.301Z,19.43
2019-04-14T16:48:20.019Z,20.30
2019-04-14T16:50:50.705Z,21.80
2019-04-14T16:53:25.447Z,18.83
2019-04-14T16:56:01.139Z,20.60
2019-04-14T16:58:36.042Z,19.50
2019-04-14T17:01:12.679Z,17.97
2019-04-14T17:03:43.055Z,19.20
2019-04-14T17:06:13.685Z,21.83
2019-04-14T17:08:43.974Z,19.90
2019-04-14T17:11:14.559Z,17.50
2019-04-14T17:13:50.489Z,17.23
2019-04-14T17:16:35.055Z,21.17
2019-04-14T17:19:12.368Z,21.10
2019-04-14T17:21:56.239Z,18.80
2019-04-14T17:24:45.499Z,18.53
2019-04-14T17:27:33.614Z,17.67
2019-04-14T17:30:29.415Z,19.33
2019-04-14T17:33:24.594Z,17.60
2019-04-14T17:36:17.675Z,17.20
2019-04-14T17:39:16.169Z,18.77
2019-04-14T17:42:01.768Z,19.90
2019-04-14T17:44:54.490Z,17.20
2019-04-14T17:47:42.390Z,20.17
2019-04-14T17:50:43.740Z,18.53
2019-04-14T17:53:39.791Z,20.20
2019-04-14T17:56:34.897Z,20.23
2019-04-14T17:59:23.976Z,16.90
2019-04-14T18:02:31.289Z,18.33
2019-04-14T18:05:14.804Z,21.83
2019-04-14T18:07:50.160Z,16.97
2019-04-14T18:10:49.172Z,18.63
2019-04-14T18:13:24.625Z,16.73
2019-04-14T18:16:14.209Z,21.50
2019-04-14T18:19:06.266Z,19.23
2019-04-14T18:21:36.567Z,21.70
2019-04-14T18:24:06.821Z,19.03
2019-04-14T18:26:37.111Z,18.83
2019-04-14T18:29:44.478Z,22.00
2019-04-14T18:32:20.321Z,19.30
2019-04-14T18:35:09.634Z,18.23
2019-04-14T18:38:11.018Z,22.37
2019-04-14T18:41:02.967Z,20.00
2019-04-14T18:44:01.655Z,17.40
2019-04-14T18:46:49.475Z,16.13
2019-04-14T18:49:50.663Z,19.87
2019-04-14T18:52:39.912Z,16.53
2019-04-14T18:55:29.186Z,18.53
2019-04-14T18:58:06.608Z,16.67
2019-04-14T19:00:41.729Z,19.43
2019-04-14T19:03:11.931Z,17.37
2019-04-14T19:05:42.216Z,19.20
2019-04-14T19:08:12.759Z,19.17
2019-04-14T19:10:45.201Z,16.57
2019-04-14T19:13:22.466Z,17.73
2019-04-14T19:15:58.216Z,19.67
2019-04-14T19:18:31.949Z,16.37
2019-04-14T19:21:14.775Z,15.23
2019-04-14T19:23:46.647Z,19.70
2019-04-14T19:26:17.261Z,17.27
2019-04-14T19:28:47.768Z,17.33
2019-04-14T19:31:18.372Z,18.83
2019-04-14T19:33:48.698Z,16.57
2019-04-14T19:36:19.656Z,16.33
2019-04-14T19:38:49.977Z,17.63
2019-04-14T19:41:20.327Z,16.47
2019-04-14T19:43:50.609Z,18.03
2019-04-14T19:46:21.246Z,19.23
2019-04-14T19:48:51.486Z,18.93
2019-04-14T19:51:21.797Z,18.57
2019-04-14T19:53:52.070Z,17.17
2019-04-14T19:56:22.275Z,19.07
2019-04-14T19:58:52.526Z,17.20
2019-04-14T20:01:22.758Z,19.30
2019-04-14T20:03:53.062Z,18.33
2019-04-14T20:06:23.348Z,17.43
2019-04-14T20:08:53.701Z,17.50
2019-04-14T20:11:25.020Z,17.63
2019-04-14T20:13:55.335Z,17.47
2019-04-14T20:16:42.966Z,16.33
2019-04-14T20:19:31.471Z,16.70
2019-04-14T20:22:20.016Z,23.67
2019-04-14T20:25:12.219Z,20.90
2019-04-14T20:27:57.081Z,17.33
2019-04-14T20:30:39.778Z,18.73
2019-04-14T20:33:10.038Z,18.47
2019-04-14T20:35:40.647Z,20.47
2019-04-14T20:38:11.052Z,20.03
2019-04-14T20:40:41.732Z,17.43
2019-04-14T20:43:12.338Z,18.87
2019-04-14T20:45:42.661Z,20.97
2019-04-14T20:48:13.427Z,19.03
2019-04-14T20:50:43.728Z,18.40
2019-04-14T20:53:13.947Z,18.63
2019-04-14T20:55:47.146Z,22.10
2019-04-14T20:58:16.556Z,20.57
2019-04-14T21:00:46.861Z,19.40
2019-04-14T21:03:42.450Z,17.57
2019-04-14T21:06:28.847Z,19.70
2019-04-14T21:09:18.359Z,19.60
2019-04-14T21:11:57.066Z,17.70
2019-04-14T21:14:52.443Z,20.97
2019-04-14T21:17:27.418Z,19.77
2019-04-14T21:20:03.746Z,19.93
2019-04-14T21:22:41.061Z,18.47
2019-04-14T21:25:45.430Z,20.17
2019-04-14T21:28:23.857Z,18.87
2019-04-14T21:31:04.533Z,23.13
2019-04-14T21:34:00.047Z,23.87
2019-04-14T21:36:34.984Z,19.80
2019-04-14T21:39:15.841Z,18.67
2019-04-14T21:41:48.123Z,17.77
2019-04-14T21:44:18.433Z,21.10
2019-04-14T21:46:48.590Z,19.50
2019-04-14T21:49:18.826Z,23.63
2019-04-14T21:51:57.719Z,25.20
2019-04-14T21:54:28.021Z,19.57
2019-04-14T21:57:20.060Z,23.17
2019-04-14T22:00:12.376Z,19.73
2019-04-14T22:03:02.011Z,21.37
2019-04-14T22:05:42.855Z,23.53
2019-04-14T22:08:17.271Z,20.67
2019-04-14T22:10:51.273Z,22.57
2019-04-14T22:13:21.558Z,23.60
2019-04-14T22:15:51.794Z,22.37
2019-04-14T22:18:22.550Z,21.17
2019-04-14T22:20:52.828Z,21.93
2019-04-14T22:23:23.223Z,21.57
2019-04-14T22:25:54.052Z,20.50
2019-04-14T22:28:24.288Z,19.83
2019-04-14T22:30:54.594Z,23.03
2019-04-14T22:33:25.312Z,18.97
2019-04-14T22:35:55.664Z,22.07
2019-04-14T22:38:25.956Z,22.27
2019-04-14T22:40:56.318Z,27.80
2019-04-14T22:43:26.556Z,20.23
2019-04-14T22:45:56.816Z,22.50
2019-04-14T22:48:27.066Z,20.93
2019-04-14T22:50:57.735Z,21.30
2019-04-14T22:53:28.413Z,23.23
2019-04-14T22:55:58.689Z,22.90
2019-04-14T22:58:29.395Z,23.33
2019-04-14T23:01:13.295Z,23.40
2019-04-14T23:03:59.950Z,23.67
2019-04-14T23:06:54.521Z,21.03
2019-04-14T23:09:38.638Z,21.80
2019-04-14T23:12:26.886Z,23.53
2019-04-14T23:15:22.430Z,20.13
2019-04-14T23:18:14.722Z,23.87
2019-04-14T23:21:03.050Z,20.20
2019-04-14T23:23:58.352Z,18.07
2019-04-14T23:26:28.709Z,24.67
2019-04-14T23:29:02.220Z,22.83
2019-04-14T23:31:32.449Z,24.30
2019-04-14T23:34:02.628Z,21.87
2019-04-14T23:36:32.878Z,19.40
2019-04-14T23:39:03.876Z,27.13
2019-04-14T23:41:35.826Z,24.93
2019-04-14T23:44:06.047Z,22.53
2019-04-14T23:46:37.367Z,19.53
2019-04-14T23:49:07.901Z,19.77
2019-04-14T23:51:38.586Z,24.50
2019-04-14T23:54:08.784Z,25.03
2019-04-14T23:56:38.971Z,22.97
2019-04-14T23:59:09.270Z,21.57
